Time;durP1;ratioP1;P1;durP2;ratioP2;P2;SDS_P1;SDS_P2;PMS_P1;PMS_P2;Temp;Humidity;BMP_temperature;BMP_pressure;BME280_temperature;BME280_humidity;BME280_pressure;Samples;Min_cycle;Max_cycle;Signal;HPM_P1;HPM_P2
2023/05/02 00:00:16;;;;;;;27.10;24.20;;;;;20.80;100723.00;;;;2063661;28;20232;-72
2023/05/02 00:01:16;;;;;;;24.93;22.33;;;;;20.80;100729.00;;;;2063222;28;20214;-72
2023/05/02 00:02:17;;;;;;;25.07;22.60;;;;;20.80;100729.00;;;;2065519;28;20630;-72
2023/05/02 00:03:17;;;;;;;26.07;23.37;;;;;20.80;100731.00;;;;2060903;28;20208;-72
2023/05/02 00:04:17;;;;;;;24.17;21.77;;;;;20.80;100734.00;;;;2055201;28;20212;-72
2023/05/02 00:05:18;;;;;;;24.20;21.90;;;;;20.80;100727.00;;;;2050839;28;20283;-72
2023/05/02 00:06:18;;;;;;;28.03;25.23;;;;;20.80;100741.00;;;;2059449;28;20219;-72
2023/05/02 00:07:19;;;;;;;26.30;23.60;;;;;20.80;100740.00;;;;2063777;28;20219;-72
2023/05/02 00:08:19;;;;;;;23.30;21.00;;;;;20.80;100742.00;;;;2065961;28;20237;-72
2023/05/02 00:09:20;;;;;;;25.00;22.50;;;;;20.80;100735.00;;;;2063228;28;20552;-72
2023/05/02 00:10:20;;;;;;;23.50;21.20;;;;;20.80;100742.00;;;;2058001;28;20604;-72
2023/05/02 00:11:21;;;;;;;24.47;22.00;;;;;20.80;100739.00;;;;2059538;28;20219;-72
2023/05/02 00:12:22;;;;;;;24.27;21.88;;;;;20.80;100754.00;;;;2062429;28;20218;-72
2023/05/02 00:13:22;;;;;;;23.77;21.47;;;;;20.80;100748.00;;;;2067577;28;20224;-72
2023/05/02 00:14:23;;;;;;;24.37;21.87;;;;;20.80;100748.00;;;;2066281;28;20219;-72
2023/05/02 00:15:24;;;;;;;26.75;24.05;;;;;20.80;100752.00;;;;2066102;28;20226;-72
2023/05/02 00:16:24;;;;;;;22.87;20.57;;;;;20.80;100752.00;;;;2061184;28;20664;-71
2023/05/02 00:17:25;;;;;;;22.90;20.63;;;;;20.80;100752.00;;;;2062535;28;20455;-71
2023/05/02 00:18:25;;;;;;;21.57;19.47;;;;;20.80;100750.00;;;;2063334;28;20345;-71
2023/05/02 00:19:25;;;;;;;22.83;20.63;;;;;20.80;100756.00;;;;2063203;28;20261;-71
2023/05/02 00:20:26;;;;;;;24.07;21.53;;;;;20.80;100756.00;;;;2065532;28;20698;-72
2023/05/02 00:21:28;;;;;;;23.33;20.87;;;;;20.80;100754.00;;;;2055295;28;20602;-72
2023/05/02 00:22:28;;;;;;;23.27;20.98;;;;;20.80;100758.00;;;;2049759;28;20208;-72
2023/05/02 00:23:29;;;;;;;22.33;20.03;;;;;20.80;100756.00;;;;2064937;28;20229;-72
2023/05/02 00:24:29;;;;;;;24.33;21.93;;;;;20.80;100752.00;;;;2065304;28;20349;-72
2023/05/02 00:25:29;;;;;;;21.53;19.43;;;;;20.80;100756.00;;;;2065901;28;20215;-72
2023/05/02 00:26:29;;;;;;;20.97;18.97;;;;;20.80;100757.00;;;;2062811;28;20222;-72
2023/05/02 00:27:33;;;;;;;22.30;19.93;;;;;20.80;100756.00;;;;2064167;28;20320;-72
2023/05/02 00:28:33;;;;;;;23.40;20.90;;;;;20.80;100751.00;;;;2064488;28;20688;-72
2023/05/02 00:29:33;;;;;;;22.50;20.20;;;;;20.80;100752.00;;;;2065857;28;20237;-72
2023/05/02 00:30:34;;;;;;;23.07;20.77;;;;;20.80;100756.00;;;;2059899;28;20223;-72
2023/05/02 00:31:35;;;;;;;21.57;19.43;;;;;20.80;100761.00;;;;2056929;28;20245;-72
2023/05/02 00:32:35;;;;;;;20.63;18.60;;;;;20.80;100754.00;;;;2063942;28;20228;-72
2023/05/02 00:33:36;;;;;;;22.27;19.97;;;;;20.80;100761.00;;;;2064307;28;20211;-72
2023/05/02 00:34:36;;;;;;;21.40;19.30;;;;;20.80;100761.00;;;;2069156;28;20255;-72
2023/05/02 00:35:37;;;;;;;20.23;18.20;;;;;20.80;100755.00;;;;2061595;28;20215;-72
2023/05/02 00:36:37;;;;;;;20.67;18.60;;;;;20.80;100759.00;;;;2064960;28;20218;-72
2023/05/02 00:37:38;;;;;;;19.00;17.00;;;;;20.80;100759.00;;;;2063818;28;20234;-72
2023/05/02 00:38:38;;;;;;;20.70;18.60;;;;;20.80;100765.00;;;;2062798;28;20234;-72
2023/05/02 00:39:38;;;;;;;20.77;18.83;;;;;20.80;100761.00;;;;2063113;28;20234;-72
2023/05/02 00:40:43;;;;;;;18.03;16.23;;;;;20.80;100756.00;;;;2062483;28;20215;-72
2023/05/02 00:41:44;;;;;;;21.83;19.52;;;;;20.70;100758.00;;;;2056059;28;20215;-72
2023/05/02 00:42:44;;;;;;;21.17;19.10;;;;;20.80;100755.00;;;;2063482;28;20242;-72
2023/05/02 00:43:44;;;;;;;20.83;18.73;;;;;20.80;100768.00;;;;2064604;28;20211;-72
2023/05/02 00:44:45;;;;;;;20.13;18.10;;;;;20.70;100764.00;;;;2057895;28;20235;-72
2023/05/02 00:45:46;;;;;;;21.83;19.70;;;;;20.80;100762.00;;;;2068283;28;20206;-72
2023/05/02 00:46:46;;;;;;;18.60;16.77;;;;;20.70;100757.00;;;;2055116;28;20750;-72
2023/05/02 00:47:47;;;;;;;21.03;18.73;;;;;20.70;100762.00;;;;2053268;28;20223;-72
2023/05/02 00:48:47;;;;;;;20.93;18.80;;;;;20.70;100764.00;;;;2058097;28;20301;-72
2023/05/02 00:49:48;;;;;;;21.33;19.20;;;;;20.70;100765.00;;;;2059361;28;20627;-72
2023/05/02 00:50:49;;;;;;;20.67;18.63;;;;;20.70;100761.00;;;;2053779;28;20215;-72
2023/05/02 00:51:49;;;;;;;20.40;18.40;;;;;20.70;100756.00;;;;2053957;28;20658;-72
2023/05/02 00:52:49;;;;;;;20.73;18.63;;;;;20.70;100762.00;;;;2063362;28;20632;-72
2023/05/02 00:53:51;;;;;;;19.43;17.43;;;;;20.70;100766.00;;;;2062057;28;20259;-72
2023/05/02 00:54:51;;;;;;;20.20;18.10;;;;;20.70;100756.00;;;;2053764;28;20212;-72
2023/05/02 00:55:53;;;;;;;20.80;18.73;;;;;20.70;100760.00;;;;2058968;28;20233;-72
2023/05/02 00:56:53;;;;;;;21.55;19.38;;;;;20.70;100758.00;;;;2055386;28;21160;-72
2023/05/02 00:57:53;;;;;;;19.10;17.10;;;;;20.70;100749.00;;;;2055553;28;20257;-72
2023/05/02 00:58:54;;;;;;;21.00;18.17;;;;;20.70;100752.00;;;;2056440;28;20719;-72
2023/05/02 00:59:55;;;;;;;21.57;19.37;;;;;20.70;100754.00;;;;2046065;28;21130;-72
2023/05/02 01:01:11;;;;;;;20.00;18.10;;;;;20.70;100758.00;;;;2047325;28;20327;-72
2023/05/02 01:02:30;;;;;;;21.30;19.30;;;;;20.70;100760.00;;;;2057197;28;20215;-72
2023/05/02 01:03:51;;;;;;;20.20;18.10;;;;;20.70;100758.00;;;;2060975;28;20244;-72
2023/05/02 01:05:42;;;;;;;20.48;18.38;;;;;20.70;100753.00;;;;2057170;28;20223;-72
2023/05/02 01:06:47;;;;;;;20.55;18.48;;;;;20.70;100757.00;;;;2037197;29;20240;-72
2023/05/02 01:08:01;;;;;;;20.35;18.25;;;;;20.70;100764.00;;;;2022700;29;20297;-72
2023/05/02 01:09:27;;;;;;;21.30;18.85;;;;;20.70;100759.00;;;;2046961;28;20208;-72
2023/05/02 01:10:47;;;;;;;19.80;17.85;;;;;20.70;100761.00;;;;2047863;28;20303;-72
2023/05/02 01:12:01;;;;;;;19.50;17.45;;;;;20.70;100760.00;;;;2057832;28;20214;-72
2023/05/02 01:13:12;;;;;;;19.55;17.58;;;;;20.70;100768.00;;;;2061905;28;20301;-72
2023/05/02 01:14:12;;;;;;;19.50;17.50;;;;;20.70;100763.00;;;;2051422;28;20211;-72
2023/05/02 01:15:18;;;;;;;20.50;18.50;;;;;20.70;100768.00;;;;2054807;28;20222;-72
2023/05/02 01:16:19;;;;;;;17.95;16.15;;;;;20.70;100767.00;;;;2063715;28;20270;-72
2023/05/02 01:17:20;;;;;;;20.77;18.67;;;;;20.70;100775.00;;;;2050958;28;20706;-72
2023/05/02 01:18:22;;;;;;;21.13;18.95;;;;;20.70;100775.00;;;;2053610;28;20546;-72
2023/05/02 01:19:31;;;;;;;19.45;17.45;;;;;20.70;100770.00;;;;2054299;28;20227;-72
2023/05/02 01:20:32;;;;;;;20.88;18.58;;;;;20.70;100780.00;;;;2054774;28;20220;-72
2023/05/02 01:21:32;;;;;;;20.73;18.13;;;;;20.70;100779.00;;;;2059397;28;20289;-72
2023/05/02 01:22:33;;;;;;;18.60;16.60;;;;;20.70;100777.00;;;;2048166;28;20220;-72
2023/05/02 01:24:05;;;;;;;20.53;18.43;;;;;20.70;100774.00;;;;2046604;28;20311;-72
2023/05/02 01:25:19;;;;;;;21.23;18.92;;;;;20.70;100784.00;;;;2041952;28;20686;-72
2023/05/02 01:26:31;;;;;;;21.80;19.45;;;;;20.70;100772.00;;;;2054560;28;20548;-72
2023/05/02 01:27:41;;;;;;;19.05;17.13;;;;;20.70;100782.00;;;;2058073;28;20223;-72
2023/05/02 01:28:59;;;;;;;19.80;17.80;;;;;20.70;100776.00;;;;2064138;28;20569;-72
2023/05/02 01:30:00;;;;;;;19.05;17.15;;;;;20.70;100785.00;;;;2049867;28;20254;-72
2023/05/02 01:31:00;;;;;;;20.47;18.50;;;;;20.70;100776.00;;;;2040182;28;20213;-72
2023/05/02 01:32:01;;;;;;;19.60;17.50;;;;;20.70;100782.00;;;;2038328;29;20555;-72
2023/05/02 01:33:02;;;;;;;19.15;17.17;;;;;20.70;100781.00;;;;2033626;28;20214;-72
2023/05/02 01:34:04;;;;;;;17.80;16.10;;;;;20.70;100785.00;;;;2047701;28;20232;-72
2023/05/02 01:35:05;;;;;;;19.85;17.88;;;;;20.70;100783.00;;;;2055406;28;20286;-72
2023/05/02 01:36:06;;;;;;;19.75;17.65;;;;;20.70;100791.00;;;;2058041;28;20293;-72
2023/05/02 01:37:07;;;;;;;20.57;18.37;;;;;20.70;100794.00;;;;2055402;28;20216;-72
2023/05/02 01:38:07;;;;;;;18.70;16.80;;;;;20.70;100801.00;;;;2060861;28;20223;-72
2023/05/02 01:39:08;;;;;;;17.50;15.70;;;;;20.70;100786.00;;;;2044273;28;20599;-72
2023/05/02 01:40:09;;;;;;;18.48;16.55;;;;;20.70;100793.00;;;;2050446;28;20673;-72
2023/05/02 01:41:10;;;;;;;18.93;17.03;;;;;20.70;100799.00;;;;2063626;28;20305;-72
2023/05/02 01:42:11;;;;;;;19.43;17.43;;;;;20.70;100801.00;;;;2063303;28;20231;-72
2023/05/02 01:43:14;;;;;;;19.50;17.60;;;;;20.70;100802.00;;;;2058697;28;20217;-72
2023/05/02 01:44:15;;;;;;;18.67;16.77;;;;;20.70;100801.00;;;;2056776;28;20655;-72
2023/05/02 01:45:15;;;;;;;18.83;17.02;;;;;20.60;100807.00;;;;2052647;28;20208;-72
2023/05/02 01:46:16;;;;;;;19.63;17.63;;;;;20.70;100805.00;;;;2053311;28;20248;-72
2023/05/02 01:47:16;;;;;;;18.97;17.17;;;;;20.60;100802.00;;;;2060390;28;20204;-72
2023/05/02 01:48:16;;;;;;;20.53;18.43;;;;;20.60;100809.00;;;;2047171;28;20208;-72
2023/05/02 01:49:17;;;;;;;19.43;17.40;;;;;20.60;100816.00;;;;2063485;28;20249;-72
2023/05/02 01:50:19;;;;;;;18.83;16.93;;;;;20.60;100811.00;;;;2048555;28;20216;-72
2023/05/02 01:51:20;;;;;;;19.05;17.15;;;;;20.60;100803.00;;;;2037482;28;20349;-72
2023/05/02 01:52:20;;;;;;;18.37;16.57;;;;;20.60;100814.00;;;;2052286;28;20220;-72
2023/05/02 01:53:22;;;;;;;18.83;16.83;;;;;20.60;100818.00;;;;2061842;28;20225;-72
2023/05/02 01:54:23;;;;;;;17.70;15.98;;;;;20.70;100815.00;;;;2050787;28;20216;-72
2023/05/02 01:55:23;;;;;;;18.83;16.90;;;;;20.60;100813.00;;;;2041252;28;20231;-72
2023/05/02 01:56:24;;;;;;;18.73;16.97;;;;;20.60;100814.00;;;;2044664;28;20217;-72
2023/05/02 01:57:24;;;;;;;19.40;17.40;;;;;20.60;100813.00;;;;2053852;28;20223;-72
2023/05/02 01:58:26;;;;;;;18.93;17.17;;;;;20.60;100827.00;;;;2054569;28;20258;-72
2023/05/02 01:59:26;;;;;;;21.20;19.02;;;;;20.60;100824.00;;;;2055572;28;20270;-72
2023/05/02 02:00:26;;;;;;;19.97;17.87;;;;;20.60;100826.00;;;;2054279;28;20684;-72
2023/05/02 02:01:29;;;;;;;18.10;15.87;;;;;20.60;100828.00;;;;2050854;28;20778;-72
2023/05/02 02:02:30;;;;;;;19.45;17.40;;;;;20.60;100831.00;;;;2056715;28;20220;-72
2023/05/02 02:03:30;;;;;;;19.90;17.90;;;;;20.60;100829.00;;;;2058020;28;20282;-72
2023/05/02 02:04:30;;;;;;;19.30;17.23;;;;;20.60;100831.00;;;;2058474;28;20215;-72
2023/05/02 02:05:31;;;;;;;18.90;17.00;;;;;20.60;100838.00;;;;2054568;28;20267;-72
2023/05/02 02:06:31;;;;;;;17.53;15.73;;;;;20.60;100833.00;;;;2043740;28;20224;-72
2023/05/02 02:07:31;;;;;;;19.60;17.43;;;;;20.60;100835.00;;;;2056306;28;20234;-72
2023/05/02 02:08:32;;;;;;;17.83;16.03;;;;;20.60;100828.00;;;;2067829;28;20245;-72
2023/05/02 02:09:32;;;;;;;19.60;17.50;;;;;20.60;100832.00;;;;2053302;28;20221;-72
2023/05/02 02:10:35;;;;;;;18.17;16.23;;;;;20.60;100835.00;;;;2055666;28;20242;-72
2023/05/02 02:11:48;;;;;;;19.20;17.30;;;;;20.60;100835.00;;;;2054203;28;20230;-72
2023/05/02 02:12:51;;;;;;;18.90;16.90;;;;;20.60;100835.00;;;;2049243;28;20220;-72
2023/05/02 02:13:59;;;;;;;18.83;16.92;;;;;20.60;100843.00;;;;2056057;28;20208;-72
2023/05/02 02:15:02;;;;;;;18.80;16.85;;;;;20.60;100830.00;;;;2058646;28;20230;-72
2023/05/02 02:16:03;;;;;;;17.60;15.85;;;;;20.60;100835.00;;;;2053702;28;20215;-72
2023/05/02 02:17:21;;;;;;;17.77;15.87;;;;;20.60;100834.00;;;;2046483;28;20280;-72
2023/05/02 02:18:24;;;;;;;18.48;16.58;;;;;20.60;100832.00;;;;2045310;28;20320;-72
2023/05/02 02:19:24;;;;;;;18.58;16.67;;;;;20.60;100828.00;;;;2051968;28;20719;-72
2023/05/02 02:20:24;;;;;;;17.27;15.47;;;;;20.60;100828.00;;;;2054732;28;20234;-72
2023/05/02 02:21:25;;;;;;;17.53;15.63;;;;;20.60;100833.00;;;;2053320;28;20222;-72
2023/05/02 02:22:26;;;;;;;17.17;15.48;;;;;20.60;100829.00;;;;2059003;28;20222;-72
2023/05/02 02:23:27;;;;;;;18.27;16.37;;;;;20.60;100837.00;;;;2056048;28;20699;-72
2023/05/02 02:24:27;;;;;;;16.27;14.57;;;;;20.60;100837.00;;;;2058298;28;20273;-72
2023/05/02 02:25:27;;;;;;;16.33;14.63;;;;;20.60;100837.00;;;;2060377;28;20262;-72
2023/05/02 02:26:28;;;;;;;16.07;14.37;;;;;20.60;100849.00;;;;2046962;28;20212;-72
2023/05/02 02:27:28;;;;;;;15.43;13.80;;;;;20.60;100845.00;;;;2055569;28;20216;-72
2023/05/02 02:28:28;;;;;;;18.80;15.83;;;;;20.60;100844.00;;;;2060331;28;20265;-72
2023/05/02 02:29:29;;;;;;;18.70;15.47;;;;;20.60;100844.00;;;;2058104;28;20218;-72
2023/05/02 02:30:29;;;;;;;16.70;15.00;;;;;20.60;100848.00;;;;2058084;28;20226;-72
2023/05/02 02:31:31;;;;;;;16.80;15.00;;;;;20.60;100844.00;;;;2054866;28;20212;-72
2023/05/02 02:32:31;;;;;;;15.90;14.30;;;;;20.60;100849.00;;;;2047430;28;20688;-72
2023/05/02 02:33:32;;;;;;;17.63;15.80;;;;;20.60;100853.00;;;;2047218;28;20224;-72
2023/05/02 02:34:32;;;;;;;16.87;14.57;;;;;20.60;100847.00;;;;2059835;28;20235;-72
2023/05/02 02:35:34;;;;;;;15.97;13.73;;;;;20.60;100853.00;;;;2065878;28;20241;-72
2023/05/02 02:36:45;;;;;;;15.65;14.05;;;;;20.60;100855.00;;;;2061353;28;20218;-72
2023/05/02 02:37:56;;;;;;;15.07;13.50;;;;;20.60;100845.00;;;;2051855;28;20290;-72
2023/05/02 02:39:10;;;;;;;15.68;13.95;;;;;20.60;100845.00;;;;2042551;28;20276;-72
2023/05/02 02:40:26;;;;;;;16.15;13.75;;;;;20.60;100850.00;;;;2055837;28;20694;-72
2023/05/02 02:41:29;;;;;;;14.73;13.23;;;;;20.60;100834.00;;;;2067217;28;20705;-71
2023/05/02 02:42:38;;;;;;;13.88;12.50;;;;;20.60;100849.00;;;;2053801;28;20226;-71
2023/05/02 02:44:04;;;;;;;14.90;13.02;;;;;20.60;100853.00;;;;2048663;28;20235;-71
2023/05/02 02:45:26;;;;;;;14.93;13.05;;;;;20.60;100853.00;;;;2043764;28;20222;-71
2023/05/02 02:46:31;;;;;;;14.43;12.93;;;;;20.60;100852.00;;;;2042193;28;20236;-71
2023/05/02 02:47:39;;;;;;;14.18;12.75;;;;;20.60;100847.00;;;;2042064;28;20223;-71
2023/05/02 02:48:45;;;;;;;14.10;12.52;;;;;20.60;100851.00;;;;2056462;28;20216;-71
2023/05/02 02:49:50;;;;;;;13.90;12.45;;;;;20.60;100858.00;;;;2054840;28;20229;-71
2023/05/02 02:51:13;;;;;;;15.93;13.18;;;;;20.60;100856.00;;;;2053612;28;20223;-71
2023/05/02 02:52:31;;;;;;;13.43;11.85;;;;;20.60;100863.00;;;;2049528;28;20219;-71
2023/05/02 02:54:04;;;;;;;13.43;11.55;;;;;20.60;100852.00;;;;2054978;28;20243;-71
2023/05/02 02:55:11;;;;;;;13.98;12.05;;;;;20.60;100857.00;;;;2060340;28;20219;-71
2023/05/02 02:56:16;;;;;;;15.35;12.75;;;;;20.60;100858.00;;;;2058931;28;20266;-71
2023/05/02 02:57:34;;;;;;;13.38;11.98;;;;;20.60;100861.00;;;;2056294;28;20240;-71
2023/05/02 02:58:56;;;;;;;13.35;11.82;;;;;20.60;100865.00;;;;2060834;28;20230;-71
2023/05/02 03:00:06;;;;;;;12.80;11.50;;;;;20.50;100861.00;;;;2047686;28;20568;-71
2023/05/02 03:01:07;;;;;;;13.23;11.82;;;;;20.50;100859.00;;;;2048521;28;20227;-71
2023/05/02 03:02:08;;;;;;;12.50;11.20;;;;;20.50;100866.00;;;;2059672;28;20214;-72
2023/05/02 03:03:08;;;;;;;11.93;10.73;;;;;20.50;100866.00;;;;2061169;28;20215;-72
2023/05/02 03:04:09;;;;;;;11.87;10.60;;;;;20.50;100861.00;;;;2056032;28;20475;-72
2023/05/02 03:05:09;;;;;;;12.10;10.20;;;;;20.60;100871.00;;;;2052716;28;20308;-72
2023/05/02 03:06:10;;;;;;;12.20;10.90;;;;;20.50;100871.00;;;;2050320;28;20208;-72
2023/05/02 03:07:10;;;;;;;12.20;10.83;;;;;20.50;100872.00;;;;2055233;28;20219;-72
2023/05/02 03:08:10;;;;;;;12.20;10.90;;;;;20.60;100873.00;;;;2062224;28;20253;-72
2023/05/02 03:09:17;;;;;;;12.10;10.80;;;;;20.50;100872.00;;;;2062311;28;20245;-72
2023/05/02 03:10:17;;;;;;;11.63;10.35;;;;;20.50;100874.00;;;;2049124;28;20212;-72
2023/05/02 03:11:18;;;;;;;12.40;11.10;;;;;20.50;100875.00;;;;2045229;28;20653;-72
2023/05/02 03:12:18;;;;;;;10.70;9.60;;;;;20.50;100877.00;;;;2068317;28;20202;-72
2023/05/02 03:13:18;;;;;;;11.60;10.40;;;;;20.50;100877.00;;;;2063015;28;20250;-72
2023/05/02 03:14:19;;;;;;;12.83;10.83;;;;;20.50;100884.00;;;;2064023;28;20207;-72
2023/05/02 03:15:52;;;;;;;10.87;9.77;;;;;20.50;100870.00;;;;2057494;28;20208;-72
2023/05/02 03:16:53;;;;;;;11.13;9.90;;;;;20.50;100875.00;;;;2024154;28;20268;-72
2023/05/02 03:17:53;;;;;;;11.10;9.90;;;;;20.50;100879.00;;;;2045667;28;21186;-72
2023/05/02 03:18:53;;;;;;;12.37;10.60;;;;;20.50;100879.00;;;;2047306;28;20315;-72
2023/05/02 03:19:54;;;;;;;11.00;9.90;;;;;20.50;100884.00;;;;2067406;28;20222;-72
2023/05/02 03:20:54;;;;;;;10.93;9.70;;;;;20.50;100876.00;;;;2062770;28;20243;-72
2023/05/02 03:21:55;;;;;;;10.27;9.17;;;;;20.50;100875.00;;;;2070438;28;20222;-72
2023/05/02 03:22:55;;;;;;;10.67;9.57;;;;;20.50;100883.00;;;;2062512;28;20257;-72
2023/05/02 03:24:00;;;;;;;10.40;9.30;;;;;20.50;100884.00;;;;2056154;28;20223;-72
2023/05/02 03:25:00;;;;;;;10.27;9.27;;;;;20.50;100879.00;;;;2056316;28;20706;-72
2023/05/02 03:26:01;;;;;;;11.07;9.47;;;;;20.50;100878.00;;;;2054236;28;20215;-72
2023/05/02 03:27:02;;;;;;;10.65;9.55;;;;;20.50;100879.00;;;;2055854;28;20212;-72
2023/05/02 03:28:02;;;;;;;10.10;9.03;;;;;20.50;100884.00;;;;2063366;28;20249;-72
2023/05/02 03:29:02;;;;;;;10.10;8.43;;;;;20.50;100884.00;;;;2053361;28;20216;-72
2023/05/02 03:30:03;;;;;;;10.17;9.17;;;;;20.50;100882.00;;;;2047259;28;20250;-72
2023/05/02 03:31:03;;;;;;;9.70;8.70;;;;;20.50;100890.00;;;;2046576;28;20224;-72
2023/05/02 03:32:04;;;;;;;9.47;8.47;;;;;20.50;100887.00;;;;2052538;28;20293;-72
2023/05/02 03:33:07;;;;;;;9.90;8.60;;;;;20.50;100882.00;;;;2066168;28;20226;-72
2023/05/02 03:34:07;;;;;;;10.25;9.05;;;;;20.50;100883.00;;;;2062969;28;20699;-72
2023/05/02 03:35:08;;;;;;;10.53;9.20;;;;;20.50;100885.00;;;;2063658;28;20261;-72
2023/05/02 03:36:08;;;;;;;8.90;8.00;;;;;20.50;100886.00;;;;2062865;28;20256;-72
2023/05/02 03:37:08;;;;;;;8.50;7.60;;;;;20.50;100888.00;;;;2062422;28;20675;-72
2023/05/02 03:38:09;;;;;;;8.40;7.43;;;;;20.50;100890.00;;;;2068802;28;20218;-72
2023/05/02 03:39:09;;;;;;;8.70;7.80;;;;;20.50;100893.00;;;;2062677;28;20271;-72
2023/05/02 03:40:10;;;;;;;11.23;8.80;;;;;20.50;100895.00;;;;2061061;28;20219;-72
2023/05/02 03:41:10;;;;;;;9.67;8.10;;;;;20.50;100898.00;;;;2054995;28;20238;-72
2023/05/02 03:42:11;;;;;;;9.53;7.70;;;;;20.50;100898.00;;;;2055707;28;20258;-72
2023/05/02 03:43:11;;;;;;;8.63;7.73;;;;;20.50;100895.00;;;;2069029;28;20751;-72
2023/05/02 03:44:11;;;;;;;8.83;7.53;;;;;20.50;100885.00;;;;2060363;28;20684;-72
2023/05/02 03:45:12;;;;;;;9.00;8.00;;;;;20.50;100894.00;;;;2058303;28;20690;-72
2023/05/02 03:46:12;;;;;;;8.87;7.90;;;;;20.50;100885.00;;;;2062606;28;20701;-72
2023/05/02 03:47:13;;;;;;;11.37;8.70;;;;;20.50;100880.00;;;;2060902;28;20221;-72
2023/05/02 03:48:13;;;;;;;9.30;8.30;;;;;20.50;100886.00;;;;2067888;28;20195;-72
2023/05/02 03:49:14;;;;;;;8.70;7.80;;;;;20.50;100887.00;;;;2058030;28;20583;-72
2023/05/02 03:50:14;;;;;;;9.07;7.83;;;;;20.50;100893.00;;;;2058843;28;20203;-72
2023/05/02 03:51:14;;;;;;;8.73;7.87;;;;;20.50;100895.00;;;;2063162;28;20202;-72
2023/05/02 03:52:15;;;;;;;8.93;8.03;;;;;20.50;100892.00;;;;2062972;28;20552;-72
2023/05/02 03:53:15;;;;;;;8.10;7.30;;;;;20.50;100897.00;;;;2059239;28;20617;-72
2023/05/02 03:54:16;;;;;;;8.60;7.70;;;;;20.50;100896.00;;;;2062545;28;20240;-72
2023/05/02 03:55:16;;;;;;;8.57;7.10;;;;;20.50;100894.00;;;;2056914;28;20207;-72
2023/05/02 03:56:20;;;;;;;7.73;6.93;;;;;20.50;100903.00;;;;2063401;28;20207;-72
2023/05/02 03:57:21;;;;;;;8.35;7.55;;;;;20.50;100902.00;;;;2049131;28;20240;-72
2023/05/02 03:58:22;;;;;;;7.97;7.13;;;;;20.50;100906.00;;;;2055253;28;20647;-72
2023/05/02 03:59:22;;;;;;;7.50;6.80;;;;;20.50;100902.00;;;;2063333;28;20980;-72
2023/05/02 04:00:22;;;;;;;8.17;7.37;;;;;20.50;100898.00;;;;2060404;28;20222;-72
2023/05/02 04:01:23;;;;;;;9.00;7.67;;;;;20.50;100900.00;;;;2063454;28;20300;-72
2023/05/02 04:02:24;;;;;;;8.10;6.90;;;;;20.50;100911.00;;;;2062576;28;20272;-72
2023/05/02 04:03:24;;;;;;;8.43;7.15;;;;;20.50;100906.00;;;;2064054;28;20302;-72
2023/05/02 04:04:24;;;;;;;7.63;6.83;;;;;20.50;100907.00;;;;2054813;28;20727;-72
2023/05/02 04:05:25;;;;;;;7.43;6.60;;;;;20.50;100901.00;;;;2054155;28;20239;-72
2023/05/02 04:06:25;;;;;;;7.47;6.50;;;;;20.50;100902.00;;;;2064347;28;20215;-72
2023/05/02 04:07:25;;;;;;;7.70;6.90;;;;;20.50;100908.00;;;;2054126;28;20219;-72
2023/05/02 04:08:26;;;;;;;8.20;7.40;;;;;20.50;100905.00;;;;2058424;28;20215;-72
2023/05/02 04:09:26;;;;;;;7.50;6.80;;;;;20.50;100912.00;;;;2066094;28;20685;-72
2023/05/02 04:10:26;;;;;;;7.03;6.33;;;;;20.50;100914.00;;;;2063253;28;20585;-72
2023/05/02 04:11:27;;;;;;;7.97;7.17;;;;;20.50;100915.00;;;;2061689;28;20228;-72
2023/05/02 04:12:27;;;;;;;7.53;6.80;;;;;20.50;100911.00;;;;2054204;28;20216;-72
2023/05/02 04:13:28;;;;;;;7.40;6.67;;;;;20.40;100916.00;;;;2060837;28;20215;-72
2023/05/02 04:14:28;;;;;;;8.03;6.90;;;;;20.40;100919.00;;;;2062289;28;20257;-72
2023/05/02 04:15:32;;;;;;;6.80;6.00;;;;;20.40;100928.00;;;;2058426;28;20245;-72
2023/05/02 04:16:32;;;;;;;7.18;6.25;;;;;20.40;100918.00;;;;2058675;28;21777;-72
2023/05/02 04:17:32;;;;;;;8.10;7.03;;;;;20.50;100919.00;;;;2063294;28;20219;-72
2023/05/02 04:18:33;;;;;;;6.77;6.07;;;;;20.40;100907.00;;;;2047655;28;20271;-72
2023/05/02 04:19:33;;;;;;;7.80;6.83;;;;;20.50;100917.00;;;;2043386;28;20768;-72
2023/05/02 04:20:34;;;;;;;7.17;6.47;;;;;20.40;100923.00;;;;2060921;28;20222;-72
2023/05/02 04:21:36;;;;;;;6.90;6.20;;;;;20.40;100922.00;;;;2062544;28;20242;-72
2023/05/02 04:22:38;;;;;;;7.25;6.55;;;;;20.40;100926.00;;;;2058637;28;20349;-72
2023/05/02 04:23:39;;;;;;;8.07;6.32;;;;;20.40;100921.00;;;;2064548;28;20221;-72
2023/05/02 04:24:39;;;;;;;6.80;6.20;;;;;20.50;100917.00;;;;2064953;28;20721;-72
2023/05/02 04:25:39;;;;;;;7.50;6.53;;;;;20.50;100920.00;;;;2064557;28;20256;-72
2023/05/02 04:26:40;;;;;;;7.23;6.50;;;;;20.40;100916.00;;;;2062991;28;20217;-72
2023/05/02 04:27:41;;;;;;;8.17;7.37;;;;;20.40;100921.00;;;;2061318;28;20549;-72
2023/05/02 04:28:41;;;;;;;7.00;5.90;;;;;20.40;100921.00;;;;2063812;28;20234;-72
2023/05/02 04:29:41;;;;;;;7.63;6.40;;;;;20.40;100926.00;;;;2068667;28;20757;-72
2023/05/02 04:30:42;;;;;;;7.83;7.03;;;;;20.40;100925.00;;;;2063758;28;20213;-72
2023/05/02 04:31:42;;;;;;;7.10;6.40;;;;;20.40;100918.00;;;;2056719;28;20208;-72
2023/05/02 04:32:42;;;;;;;7.60;6.60;;;;;20.40;100926.00;;;;2064860;28;20210;-72
2023/05/02 04:33:43;;;;;;;7.33;6.60;;;;;20.40;100928.00;;;;2062096;28;20202;-72
2023/05/02 04:34:43;;;;;;;8.03;6.50;;;;;20.40;100930.00;;;;2056553;28;20226;-72
2023/05/02 04:35:43;;;;;;;7.00;6.30;;;;;20.40;100923.00;;;;2061506;28;20211;-72
2023/05/02 04:36:45;;;;;;;8.30;6.53;;;;;20.40;100931.00;;;;2047979;28;20222;-72
2023/05/02 04:37:45;;;;;;;8.40;6.93;;;;;20.40;100931.00;;;;2054423;28;20273;-72
2023/05/02 04:38:46;;;;;;;6.97;6.27;;;;;20.40;100936.00;;;;2056394;28;20227;-72
2023/05/02 04:39:46;;;;;;;7.17;6.40;;;;;20.40;100935.00;;;;2056198;28;20219;-72
2023/05/02 04:40:46;;;;;;;7.57;6.87;;;;;20.40;100938.00;;;;2065176;28;20290;-72
2023/05/02 04:41:47;;;;;;;7.23;6.27;;;;;20.40;100936.00;;;;2048312;28;20247;-72
2023/05/02 04:42:47;;;;;;;6.60;5.90;;;;;20.40;100947.00;;;;2055632;28;20215;-72
2023/05/02 04:43:47;;;;;;;7.47;6.67;;;;;20.40;100940.00;;;;2059487;28;20215;-72
2023/05/02 04:44:48;;;;;;;7.23;6.53;;;;;20.40;100951.00;;;;2057386;28;20633;-72
2023/05/02 04:45:49;;;;;;;6.90;6.00;;;;;20.50;100951.00;;;;2068285;28;20217;-72
2023/05/02 04:46:49;;;;;;;7.57;6.87;;;;;20.40;100948.00;;;;2063802;28;20549;-71
2023/05/02 04:47:49;;;;;;;7.43;6.20;;;;;20.40;100953.00;;;;2061258;28;20615;-71
2023/05/02 04:48:50;;;;;;;7.97;7.17;;;;;20.40;100953.00;;;;2063492;28;20234;-71
2023/05/02 04:49:50;;;;;;;7.50;6.80;;;;;20.40;100953.00;;;;2062352;28;20238;-71
2023/05/02 04:50:52;;;;;;;7.57;6.40;;;;;20.50;100955.00;;;;2068379;28;20206;-71
2023/05/02 04:51:52;;;;;;;6.80;6.10;;;;;20.40;100958.00;;;;2054591;28;20227;-71
2023/05/02 04:52:53;;;;;;;7.47;6.73;;;;;20.40;100952.00;;;;2053960;28;20714;-71
2023/05/02 04:53:53;;;;;;;6.93;6.10;;;;;20.40;100961.00;;;;2064290;28;20222;-72
2023/05/02 04:54:53;;;;;;;6.53;5.70;;;;;20.40;100968.00;;;;2059819;28;20285;-72
2023/05/02 04:55:54;;;;;;;7.60;6.63;;;;;20.40;100968.00;;;;2068054;28;20232;-72
2023/05/02 04:56:54;;;;;;;7.53;6.73;;;;;20.40;100968.00;;;;2062371;28;20223;-72
2023/05/02 04:57:54;;;;;;;7.83;6.70;;;;;20.40;100968.00;;;;2063147;28;20687;-72
2023/05/02 04:58:55;;;;;;;6.90;6.20;;;;;20.40;100978.00;;;;2067592;28;20572;-72
2023/05/02 04:59:55;;;;;;;9.80;6.60;;;;;20.40;100977.00;;;;2062009;28;20648;-72
2023/05/02 05:00:55;;;;;;;6.90;6.20;;;;;20.40;100976.00;;;;2070898;28;20224;-72
2023/05/02 05:01:56;;;;;;;7.10;6.40;;;;;20.40;100982.00;;;;2061880;28;20591;-72
2023/05/02 05:02:56;;;;;;;6.80;6.10;;;;;20.40;100980.00;;;;2054347;28;20588;-72
2023/05/02 05:03:56;;;;;;;7.20;6.50;;;;;20.40;100979.00;;;;2067489;28;20702;-72
2023/05/02 05:04:57;;;;;;;6.27;5.67;;;;;20.40;100987.00;;;;2063326;28;20229;-72